sensor_id;sensor_type;location;lat;lon;timestamp;pressure;altitude;pressure_sealevel;temperature;humidity
80188;BME280;73735;52.134;5.436;2024-02-04T00:02:23;102502.06;;;10.25;92.13
80188;BME280;73735;52.134;5.436;2024-02-04T00:04:51;102502.97;;;10.24;92.24
80188;BME280;73735;52.134;5.436;2024-02-04T00:07:18;102499.50;;;10.24;92.34
80188;BME280;73735;52.134;5.436;2024-02-04T00:09:45;102502.13;;;10.24;92.27
80188;BME280;73735;52.134;5.436;2024-02-04T00:12:11;102511.00;;;10.23;92.52
80188;BME280;73735;52.134;5.436;2024-02-04T00:14:38;102511.00;;;10.23;92.52
80188;BME280;73735;52.134;5.436;2024-02-04T00:17:04;102508.34;;;10.23;92.56
80188;BME280;73735;52.134;5.436;2024-02-04T00:19:31;102496.13;;;10.22;92.38
80188;BME280;73735;52.134;5.436;2024-02-04T00:21:57;102495.34;;;10.20;92.36
80188;BME280;73735;52.134;5.436;2024-02-04T00:24:24;102493.56;;;10.20;92.31
80188;BME280;73735;52.134;5.436;2024-02-04T00:26:51;102503.16;;;10.21;92.21
80188;BME280;73735;52.134;5.436;2024-02-04T00:29:19;102501.53;;;10.19;92.04
80188;BME280;73735;52.134;5.436;2024-02-04T00:31:46;102493.63;;;10.19;92.19
80188;BME280;73735;52.134;5.436;2024-02-04T00:34:12;102495.44;;;10.17;92.22
80188;BME280;73735;52.134;5.436;2024-02-04T00:36:39;102499.88;;;10.16;92.16
80188;BME280;73735;52.134;5.436;2024-02-04T00:39:05;102500.78;;;10.15;92.01
80188;BME280;73735;52.134;5.436;2024-02-04T00:41:34;102499.94;;;10.15;92.06
80188;BME280;73735;52.134;5.436;2024-02-04T00:44:01;102491.19;;;10.14;92.07
80188;BME280;73735;52.134;5.436;2024-02-04T00:46:27;102488.63;;;10.13;92.19
80188;BME280;73735;52.134;5.436;2024-02-04T00:48:54;102492.19;;;10.12;92.10
80188;BME280;73735;52.134;5.436;2024-02-04T00:51:22;102496.69;;;10.10;92.06
80188;BME280;73735;52.134;5.436;2024-02-04T00:53:48;102486.16;;;10.10;92.16
80188;BME280;73735;52.134;5.436;2024-02-04T00:56:15;102495.81;;;10.09;92.05
80188;BME280;73735;52.134;5.436;2024-02-04T00:58:41;102487.09;;;10.09;92.02
80188;BME280;73735;52.134;5.436;2024-02-04T01:01:08;102486.25;;;10.08;91.92
80188;BME280;73735;52.134;5.436;2024-02-04T01:03:34;102481.84;;;10.09;91.94
80188;BME280;73735;52.134;5.436;2024-02-04T01:06:01;102478.44;;;10.07;91.96
80188;BME280;73735;52.134;5.436;2024-02-04T01:08:28;102474.03;;;10.07;92.04
80188;BME280;73735;52.134;5.436;2024-02-04T01:10:54;102475.81;;;10.07;91.86
80188;BME280;73735;52.134;5.436;2024-02-04T01:13:21;102481.91;;;10.07;92.16
80188;BME280;73735;52.134;5.436;2024-02-04T01:15:47;102476.72;;;10.06;92.05
80188;BME280;73735;52.134;5.436;2024-02-04T01:18:14;102471.63;;;10.03;91.85
80188;BME280;73735;52.134;5.436;2024-02-04T01:20:41;102461.94;;;10.03;91.89
80188;BME280;73735;52.134;5.436;2024-02-04T01:23:07;102462.72;;;10.05;91.88
80188;BME280;73735;52.134;5.436;2024-02-04T01:25:34;102466.34;;;10.03;92.05
80188;BME280;73735;52.134;5.436;2024-02-04T01:28:02;102468.97;;;10.03;91.80
80188;BME280;73735;52.134;5.436;2024-02-04T01:30:29;102466.28;;;10.04;91.78
80188;BME280;73735;52.134;5.436;2024-02-04T01:32:57;102473.31;;;10.04;91.59
80188;BME280;73735;52.134;5.436;2024-02-04T01:35:24;102481.28;;;10.02;91.80
80188;BME280;73735;52.134;5.436;2024-02-04T01:37:50;102472.47;;;10.03;91.68
80188;BME280;73735;52.134;5.436;2024-02-04T01:40:17;102477.72;;;10.03;91.66
80188;BME280;73735;52.134;5.436;2024-02-04T01:42:43;102471.75;;;10.00;91.58
80188;BME280;73735;52.134;5.436;2024-02-04T01:45:10;102484.06;;;9.99;91.55
80188;BME280;73735;52.134;5.436;2024-02-04T01:47:37;102477.09;;;9.98;91.46
80188;BME280;73735;52.134;5.436;2024-02-04T01:50:05;102472.75;;;9.97;91.45
80188;BME280;73735;52.134;5.436;2024-02-04T01:52:33;102468.41;;;9.96;91.41
80188;BME280;73735;52.134;5.436;2024-02-04T01:55:03;102478.09;;;9.96;91.39
80188;BME280;73735;52.134;5.436;2024-02-04T01:57:34;102473.00;;;9.93;91.43
80188;BME280;73735;52.134;5.436;2024-02-04T02:00:04;102474.78;;;9.92;91.18
80188;BME280;73735;52.134;5.436;2024-02-04T02:02:32;102475.78;;;9.89;91.21
80188;BME280;73735;52.134;5.436;2024-02-04T02:05:00;102480.03;;;9.92;91.17
80188;BME280;73735;52.134;5.436;2024-02-04T02:07:27;102482.69;;;9.92;90.90
80188;BME280;73735;52.134;5.436;2024-02-04T02:09:54;102482.75;;;9.90;90.91
80188;BME280;73735;52.134;5.436;2024-02-04T02:12:30;102489.78;;;9.90;90.99
80188;BME280;73735;52.134;5.436;2024-02-04T02:15:11;102490.78;;;9.87;91.00
80188;BME280;73735;52.134;5.436;2024-02-04T02:18:23;102496.03;;;9.87;90.94
80188;BME280;73735;52.134;5.436;2024-02-04T02:26:33;102475.22;;;9.83;91.02
80188;BME280;73735;52.134;5.436;2024-02-04T02:29:00;102471.81;;;9.81;90.98
80188;BME280;73735;52.134;5.436;2024-02-04T02:31:27;102468.31;;;9.80;91.03
80188;BME280;73735;52.134;5.436;2024-02-04T02:34:10;102464.09;;;9.78;91.05
80188;BME280;73735;52.134;5.436;2024-02-04T02:36:42;102463.16;;;9.79;90.66
80188;BME280;73735;52.134;5.436;2024-02-04T02:39:36;102459.81;;;9.75;90.67
80188;BME280;73735;52.134;5.436;2024-02-04T02:42:03;102454.78;;;9.71;90.63
80188;BME280;73735;52.134;5.436;2024-02-04T02:44:31;102459.31;;;9.67;90.38
80188;BME280;73735;52.134;5.436;2024-02-04T02:46:59;102460.97;;;9.70;90.50
80188;BME280;73735;52.134;5.436;2024-02-04T02:49:28;102472.41;;;9.69;90.30
80188;BME280;73735;52.134;5.436;2024-02-04T02:51:55;102469.06;;;9.65;90.33
80188;BME280;73735;52.134;5.436;2024-02-04T02:54:21;102472.66;;;9.64;90.42
80188;BME280;73735;52.134;5.436;2024-02-04T02:56:48;102471.78;;;9.64;90.64
80188;BME280;73735;52.134;5.436;2024-02-04T02:59:14;102456.88;;;9.64;90.41
80188;BME280;73735;52.134;5.436;2024-02-04T03:01:41;102462.94;;;9.65;90.43
80188;BME280;73735;52.134;5.436;2024-02-04T03:04:07;102463.13;;;9.62;90.39
80188;BME280;73735;52.134;5.436;2024-02-04T03:06:34;102456.16;;;9.61;90.38
80188;BME280;73735;52.134;5.436;2024-02-04T03:09:00;102456.09;;;9.62;90.53
80188;BME280;73735;52.134;5.436;2024-02-04T03:11:27;102458.66;;;9.64;90.53
80188;BME280;73735;52.134;5.436;2024-02-04T03:13:53;102470.84;;;9.65;90.73
80188;BME280;73735;52.134;5.436;2024-02-04T03:16:20;102458.66;;;9.64;90.54
80188;BME280;73735;52.134;5.436;2024-02-04T03:18:46;102462.19;;;9.63;90.66
80188;BME280;73735;52.134;5.436;2024-02-04T03:21:14;102469.25;;;9.62;90.47
80188;BME280;73735;52.134;5.436;2024-02-04T03:23:41;102463.13;;;9.62;90.52
80188;BME280;73735;52.134;5.436;2024-02-04T03:26:09;102458.78;;;9.61;90.38
80188;BME280;73735;52.134;5.436;2024-02-04T03:28:36;102462.47;;;9.57;89.89
80188;BME280;73735;52.134;5.436;2024-02-04T03:31:03;102464.97;;;9.60;89.76
80188;BME280;73735;52.134;5.436;2024-02-04T03:33:30;102462.47;;;9.57;89.55
80188;BME280;73735;52.134;5.436;2024-02-04T03:35:57;102455.53;;;9.55;89.24
80188;BME280;73735;52.134;5.436;2024-02-04T03:38:23;102456.31;;;9.58;89.20
80188;BME280;73735;52.134;5.436;2024-02-04T03:40:49;102455.53;;;9.55;89.02
80188;BME280;73735;52.134;5.436;2024-02-04T03:43:16;102454.72;;;9.53;88.90
80188;BME280;73735;52.134;5.436;2024-02-04T03:45:42;102464.47;;;9.51;88.48
80188;BME280;73735;52.134;5.436;2024-02-04T03:48:09;102463.72;;;9.49;88.19
80188;BME280;73735;52.134;5.436;2024-02-04T03:50:36;102462.16;;;9.45;88.19
80188;BME280;73735;52.134;5.436;2024-02-04T03:53:02;102468.25;;;9.46;87.85
80188;BME280;73735;52.134;5.436;2024-02-04T03:55:29;102468.34;;;9.44;87.60
80188;BME280;73735;52.134;5.436;2024-02-04T03:57:55;102483.19;;;9.45;87.59
80188;BME280;73735;52.134;5.436;2024-02-04T04:00:25;102478.06;;;9.42;87.55
80188;BME280;73735;52.134;5.436;2024-02-04T04:02:52;102473.81;;;9.40;87.22
80188;BME280;73735;52.134;5.436;2024-02-04T04:05:18;102475.66;;;9.38;86.97
80188;BME280;73735;52.134;5.436;2024-02-04T04:07:45;102459.03;;;9.37;86.86
80188;BME280;73735;52.134;5.436;2024-02-04T04:10:11;102474.84;;;9.36;86.78
80188;BME280;73735;52.134;5.436;2024-02-04T04:12:38;102471.53;;;9.32;86.77
80188;BME280;73735;52.134;5.436;2024-02-04T04:15:05;102464.59;;;9.31;86.76
80188;BME280;73735;52.134;5.436;2024-02-04T04:17:32;102467.16;;;9.33;87.00
80188;BME280;73735;52.134;5.436;2024-02-04T04:19:58;102445.25;;;9.32;86.91
80188;BME280;73735;52.134;5.436;2024-02-04T04:22:25;102441.84;;;9.30;87.10
80188;BME280;73735;52.134;5.436;2024-02-04T04:24:51;102445.41;;;9.29;87.15
80188;BME280;73735;52.134;5.436;2024-02-04T04:27:18;102448.94;;;9.28;87.45
80188;BME280;73735;52.134;5.436;2024-02-04T04:29:44;102452.44;;;9.29;87.61
80188;BME280;73735;52.134;5.436;2024-02-04T04:32:10;102454.22;;;9.28;87.65
80188;BME280;73735;52.134;5.436;2024-02-04T04:34:37;102455.91;;;9.29;87.80
80188;BME280;73735;52.134;5.436;2024-02-04T04:37:03;102448.94;;;9.28;87.85
80188;BME280;73735;52.134;5.436;2024-02-04T04:39:30;102454.22;;;9.28;87.70
80188;BME280;73735;52.134;5.436;2024-02-04T04:41:57;102444.53;;;9.29;88.00
80188;BME280;73735;52.134;5.436;2024-02-04T04:44:23;102444.47;;;9.30;88.03
80188;BME280;73735;52.134;5.436;2024-02-04T04:46:49;102442.78;;;9.29;88.09
80188;BME280;73735;52.134;5.436;2024-02-04T04:49:16;102433.91;;;9.32;88.14
80188;BME280;73735;52.134;5.436;2024-02-04T04:51:45;102426.00;;;9.32;88.34
80188;BME280;73735;52.134;5.436;2024-02-04T04:54:14;102429.50;;;9.32;88.01
80188;BME280;73735;52.134;5.436;2024-02-04T04:56:41;102421.59;;;9.32;87.91
80188;BME280;73735;52.134;5.436;2024-02-04T04:59:08;102420.69;;;9.33;87.86
80188;BME280;73735;52.134;5.436;2024-02-04T05:01:35;102419.06;;;9.31;87.84
80188;BME280;73735;52.134;5.436;2024-02-04T05:04:02;102405.06;;;9.30;87.59
80188;BME280;73735;52.134;5.436;2024-02-04T05:06:28;102414.78;;;9.28;87.60
80188;BME280;73735;52.134;5.436;2024-02-04T05:08:55;102404.22;;;9.30;87.55
80188;BME280;73735;52.134;5.436;2024-02-04T05:11:21;102407.69;;;9.30;87.35
80188;BME280;73735;52.134;5.436;2024-02-04T05:13:48;102413.00;;;9.29;87.44
80188;BME280;73735;52.134;5.436;2024-02-04T05:16:14;102413.00;;;9.29;87.22
80188;BME280;73735;52.134;5.436;2024-02-04T05:18:41;102417.41;;;9.28;87.25
80188;BME280;73735;52.134;5.436;2024-02-04T05:21:07;102409.53;;;9.28;87.47
80188;BME280;73735;52.134;5.436;2024-02-04T05:23:36;102417.34;;;9.30;87.58
80188;BME280;73735;52.134;5.436;2024-02-04T05:26:05;102418.25;;;9.29;87.22
80188;BME280;73735;52.134;5.436;2024-02-04T05:28:32;102417.41;;;9.28;87.35
80188;BME280;73735;52.134;5.436;2024-02-04T05:31:01;102420.81;;;9.30;87.74
80188;BME280;73735;52.134;5.436;2024-02-04T05:33:27;102427.94;;;9.28;87.56
80188;BME280;73735;52.134;5.436;2024-02-04T05:35:54;102408.59;;;9.29;87.75
80188;BME280;73735;52.134;5.436;2024-02-04T05:38:21;102409.53;;;9.28;87.79
80188;BME280;73735;52.134;5.436;2024-02-04T05:40:48;102406.84;;;9.30;88.01
80188;BME280;73735;52.134;5.436;2024-02-04T05:43:14;102399.88;;;9.29;88.08
80188;BME280;73735;52.134;5.436;2024-02-04T05:45:41;102387.59;;;9.29;87.94
80188;BME280;73735;52.134;5.436;2024-02-04T05:48:09;102384.97;;;9.29;87.96
80188;BME280;73735;52.134;5.436;2024-02-04T05:50:35;102392.78;;;9.31;87.91
80188;BME280;73735;52.134;5.436;2024-02-04T05:53:02;102392.84;;;9.29;87.74
80188;BME280;73735;52.134;5.436;2024-02-04T05:55:29;102401.66;;;9.28;87.75
80188;BME280;73735;52.134;5.436;2024-02-04T05:57:55;102402.56;;;9.27;87.62
80188;BME280;73735;52.134;5.436;2024-02-04T06:00:23;102397.44;;;9.24;87.35
80188;BME280;73735;52.134;5.436;2024-02-04T06:02:50;102398.31;;;9.25;87.27
80188;BME280;73735;52.134;5.436;2024-02-04T06:05:16;102396.53;;;9.25;87.10
80188;BME280;73735;52.134;5.436;2024-02-04T06:07:43;102381.63;;;9.26;87.14
80188;BME280;73735;52.134;5.436;2024-02-04T06:10:10;102371.19;;;9.24;87.08
80188;BME280;73735;52.134;5.436;2024-02-04T06:12:37;102370.19;;;9.27;87.29
80188;BME280;73735;52.134;5.436;2024-02-04T06:15:13;102370.25;;;9.25;87.34
80188;BME280;73735;52.134;5.436;2024-02-04T06:17:40;102372.03;;;9.25;87.45
80188;BME280;73735;52.134;5.436;2024-02-04T06:20:07;102380.69;;;9.27;87.72
80188;BME280;73735;52.134;5.436;2024-02-04T06:22:34;102357.19;;;9.24;87.63
80188;BME280;73735;52.134;5.436;2024-02-04T06:25:02;102361.44;;;9.26;87.66
80188;BME280;73735;52.134;5.436;2024-02-04T06:27:33;102360.44;;;9.29;87.93
80188;BME280;73735;52.134;5.436;2024-02-04T06:29:59;102354.34;;;9.28;88.15
80188;BME280;73735;52.134;5.436;2024-02-04T06:32:26;102354.34;;;9.28;88.29
80188;BME280;73735;52.134;5.436;2024-02-04T06:34:52;102349.09;;;9.28;88.42
80188;BME280;73735;52.134;5.436;2024-02-04T06:37:22;102342.97;;;9.28;88.40
80188;BME280;73735;52.134;5.436;2024-02-04T06:39:48;102344.69;;;9.29;88.39
80188;BME280;73735;52.134;5.436;2024-02-04T06:42:15;102359.47;;;9.31;88.58
80188;BME280;73735;52.134;5.436;2024-02-04T06:44:45;102356.91;;;9.30;88.56
80188;BME280;73735;52.134;5.436;2024-02-04T06:47:12;102354.19;;;9.31;88.71
80188;BME280;73735;52.134;5.436;2024-02-04T06:49:43;102347.16;;;9.32;89.06
80188;BME280;73735;52.134;5.436;2024-02-04T06:52:10;102363.72;;;9.34;89.09
80188;BME280;73735;52.134;5.436;2024-02-04T06:54:37;102351.44;;;9.34;89.13
80188;BME280;73735;52.134;5.436;2024-02-04T06:57:04;102355.72;;;9.35;89.29
80188;BME280;73735;52.134;5.436;2024-02-04T06:59:30;102361.84;;;9.36;89.35
80188;BME280;73735;52.134;5.436;2024-02-04T07:01:56;102362.69;;;9.36;89.21
80188;BME280;73735;52.134;5.436;2024-02-04T07:04:23;102350.41;;;9.37;89.50
80188;BME280;73735;52.134;5.436;2024-02-04T07:06:53;102358.28;;;9.37;89.58
80188;BME280;73735;52.134;5.436;2024-02-04T07:09:19;102359.06;;;9.39;89.66
80188;BME280;73735;52.134;5.436;2024-02-04T07:11:46;102344.16;;;9.39;89.72
80188;BME280;73735;52.134;5.436;2024-02-04T07:14:13;102342.44;;;9.38;89.93
80188;BME280;73735;52.134;5.436;2024-02-04T07:16:39;102336.25;;;9.39;89.98
80188;BME280;73735;52.134;5.436;2024-02-04T07:19:06;102325.75;;;9.39;90.08
80188;BME280;73735;52.134;5.436;2024-02-04T07:21:32;102333.56;;;9.41;89.91
80188;BME280;73735;52.134;5.436;2024-02-04T07:23:59;102330.00;;;9.42;90.06
80188;BME280;73735;52.134;5.436;2024-02-04T07:26:25;102327.16;;;9.46;89.57
80188;BME280;73735;52.134;5.436;2024-02-04T07:28:52;102330.47;;;9.50;89.38
80188;BME280;73735;52.134;5.436;2024-02-04T07:31:18;102327.84;;;9.50;89.43
80188;BME280;73735;52.134;5.436;2024-02-04T07:33:45;102328.53;;;9.53;89.41
80188;BME280;73735;52.134;5.436;2024-02-04T07:36:11;102332.81;;;9.56;89.43
80188;BME280;73735;52.134;5.436;2024-02-04T07:38:38;102336.22;;;9.58;89.55
80188;BME280;73735;52.134;5.436;2024-02-04T07:41:04;102346.66;;;9.60;89.71
80188;BME280;73735;52.134;5.436;2024-02-04T07:43:31;102342.31;;;9.59;89.66
80188;BME280;73735;52.134;5.436;2024-02-04T07:45:57;102350.13;;;9.60;89.70
80188;BME280;73735;52.134;5.436;2024-02-04T07:48:27;102349.13;;;9.63;89.84
80188;BME280;73735;52.134;5.436;2024-02-04T07:50:54;102357.88;;;9.63;89.70
80188;BME280;73735;52.134;5.436;2024-02-04T07:53:20;102352.44;;;9.66;89.79
80188;BME280;73735;52.134;5.436;2024-02-04T07:55:48;102354.13;;;9.67;89.58
80188;BME280;73735;52.134;5.436;2024-02-04T07:58:16;102350.59;;;9.68;89.56
80188;BME280;73735;52.134;5.436;2024-02-04T08:00:42;102340.06;;;9.68;89.61
80188;BME280;73735;52.134;5.436;2024-02-04T08:03:09;102334.81;;;9.68;89.47
80188;BME280;73735;52.134;5.436;2024-02-04T08:05:36;102338.28;;;9.69;89.29
80188;BME280;73735;52.134;5.436;2024-02-04T08:08:02;102347.09;;;9.68;88.89
80188;BME280;73735;52.134;5.436;2024-02-04T08:10:30;102346.09;;;9.70;88.48
80188;BME280;73735;52.134;5.436;2024-02-04T08:12:56;102341.69;;;9.71;88.29
80188;BME280;73735;52.134;5.436;2024-02-04T08:15:23;102336.50;;;9.69;88.13
80188;BME280;73735;52.134;5.436;2024-02-04T08:17:50;102335.59;;;9.70;87.82
80188;BME280;73735;52.134;5.436;2024-02-04T08:20:17;102347.72;;;9.73;87.51
80188;BME280;73735;52.134;5.436;2024-02-04T08:22:44;102338.06;;;9.73;87.52
80188;BME280;73735;52.134;5.436;2024-02-04T08:25:10;102324.91;;;9.73;87.15
80188;BME280;73735;52.134;5.436;2024-02-04T08:27:38;102331.88;;;9.74;87.29
80188;BME280;73735;52.134;5.436;2024-02-04T08:30:06;102337.06;;;9.76;87.32
80188;BME280;73735;52.134;5.436;2024-02-04T08:32:32;102340.63;;;9.75;87.35
80188;BME280;73735;52.134;5.436;2024-02-04T08:34:59;102338.84;;;9.75;87.20
80188;BME280;73735;52.134;5.436;2024-02-04T08:37:26;102328.16;;;9.78;87.03
80188;BME280;73735;52.134;5.436;2024-02-04T08:39:54;102329.03;;;9.79;87.00
80188;BME280;73735;52.134;5.436;2024-02-04T08:42:21;102335.97;;;9.80;87.04
80188;BME280;73735;52.134;5.436;2024-02-04T08:44:47;102321.13;;;9.79;86.73
80188;BME280;73735;52.134;5.436;2024-02-04T08:47:14;102318.31;;;9.82;86.72
80188;BME280;73735;52.134;5.436;2024-02-04T08:49:43;102314.84;;;9.81;86.67
80188;BME280;73735;52.134;5.436;2024-02-04T08:52:10;102318.41;;;9.80;86.76
80188;BME280;73735;52.134;5.436;2024-02-04T08:54:36;102304.41;;;9.80;87.19
80188;BME280;73735;52.134;5.436;2024-02-04T08:57:03;102301.88;;;9.78;87.21
80188;BME280;73735;52.134;5.436;2024-02-04T08:59:30;102314.06;;;9.79;87.67
80188;BME280;73735;52.134;5.436;2024-02-04T09:01:56;102299.06;;;9.81;87.77
80188;BME280;73735;52.134;5.436;2024-02-04T09:04:23;102300.69;;;9.84;88.03
80188;BME280;73735;52.134;5.436;2024-02-04T09:06:49;102298.06;;;9.84;88.22
80188;BME280;73735;52.134;5.436;2024-02-04T09:09:16;102295.97;;;9.90;88.22
80188;BME280;73735;52.134;5.436;2024-02-04T09:11:42;102297.59;;;9.93;88.19
80188;BME280;73735;52.134;5.436;2024-02-04T09:14:09;102294.13;;;9.93;88.32
80188;BME280;73735;52.134;5.436;2024-02-04T09:16:38;102300.22;;;9.93;88.44
80188;BME280;73735;52.134;5.436;2024-02-04T09:19:05;102304.38;;;9.97;88.54
80188;BME280;73735;52.134;5.436;2024-02-04T09:21:32;102308.72;;;9.98;88.60
80188;BME280;73735;52.134;5.436;2024-02-04T09:23:58;102312.13;;;10.00;88.55
80188;BME280;73735;52.134;5.436;2024-02-04T09:26:25;102315.53;;;10.02;88.72
80188;BME280;73735;52.134;5.436;2024-02-04T09:28:51;102318.91;;;10.04;88.60
80188;BME280;73735;52.134;5.436;2024-02-04T09:31:18;102329.28;;;10.07;88.68
80188;BME280;73735;52.134;5.436;2024-02-04T09:33:45;102328.25;;;10.10;88.66
80188;BME280;73735;52.134;5.436;2024-02-04T09:36:12;102325.47;;;10.13;88.80
80188;BME280;73735;52.134;5.436;2024-02-04T09:38:38;102321.84;;;10.15;88.56
80188;BME280;73735;52.134;5.436;2024-02-04T09:41:05;102319.94;;;10.19;88.62
80188;BME280;73735;52.134;5.436;2024-02-04T09:43:32;102318.00;;;10.22;88.47
80188;BME280;73735;52.134;5.436;2024-02-04T09:46:00;102316.88;;;10.27;88.33
80188;BME280;73735;52.134;5.436;2024-02-04T09:48:33;102319.44;;;10.28;88.16
80188;BME280;73735;52.134;5.436;2024-02-04T09:51:00;102307.91;;;10.31;88.29
80188;BME280;73735;52.134;5.436;2024-02-04T09:53:40;102311.28;;;10.33;88.12
80188;BME280;73735;52.134;5.436;2024-02-04T09:56:09;102313.84;;;10.34;87.92
80188;BME280;73735;52.134;5.436;2024-02-04T09:58:38;102312.00;;;10.36;87.99
80188;BME280;73735;52.134;5.436;2024-02-04T10:01:05;102306.66;;;10.38;88.18
80188;BME280;73735;52.134;5.436;2024-02-04T10:03:35;102311.72;;;10.41;87.90
80188;BME280;73735;52.134;5.436;2024-02-04T10:06:02;102313.41;;;10.42;87.71
80188;BME280;73735;52.134;5.436;2024-02-04T10:08:28;102311.56;;;10.44;87.74
80188;BME280;73735;52.134;5.436;2024-02-04T10:10:55;102316.75;;;10.45;87.53
80188;BME280;73735;52.134;5.436;2024-02-04T10:13:22;102325.41;;;10.47;87.54
80188;BME280;73735;52.134;5.436;2024-02-04T10:15:51;102323.63;;;10.48;87.45
80188;BME280;73735;52.134;5.436;2024-02-04T10:18:18;102317.44;;;10.49;87.44
80188;BME280;73735;52.134;5.436;2024-02-04T10:20:48;102315.66;;;10.49;87.52
80188;BME280;73735;52.134;5.436;2024-02-04T10:23:14;102314.81;;;10.49;87.14
80188;BME280;73735;52.134;5.436;2024-02-04T10:25:41;102321.78;;;10.50;86.99
80188;BME280;73735;52.134;5.436;2024-02-04T10:28:07;102318.22;;;10.51;86.82
80188;BME280;73735;52.134;5.436;2024-02-04T10:30:37;102324.25;;;10.53;86.88
80188;BME280;73735;52.134;5.436;2024-02-04T10:33:04;102318.13;;;10.52;86.79
80188;BME280;73735;52.134;5.436;2024-02-04T10:35:31;102323.28;;;10.54;86.61
80188;BME280;73735;52.134;5.436;2024-02-04T10:37:57;102328.38;;;10.57;86.67
80188;BME280;73735;52.134;5.436;2024-02-04T10:40:24;102324.81;;;10.58;85.72
80188;BME280;73735;52.134;5.436;2024-02-04T10:42:52;102323.91;;;10.59;85.72
80188;BME280;73735;52.134;5.436;2024-02-04T10:45:25;102337.84;;;10.61;85.24
80188;BME280;73735;52.134;5.436;2024-02-04T10:47:56;102338.59;;;10.63;85.34
80188;BME280;73735;52.134;5.436;2024-02-04T10:50:26;102330.69;;;10.63;85.50
80188;BME280;73735;52.134;5.436;2024-02-04T10:52:55;102328.84;;;10.65;85.31
80188;BME280;73735;52.134;5.436;2024-02-04T10:55:27;102324.34;;;10.67;84.76
80188;BME280;73735;52.134;5.436;2024-02-04T10:57:55;102329.41;;;10.70;84.59
80188;BME280;73735;52.134;5.436;2024-02-04T11:00:22;102331.13;;;10.71;84.40
80188;BME280;73735;52.134;5.436;2024-02-04T11:02:49;102322.28;;;10.72;84.57
80188;BME280;73735;52.134;5.436;2024-02-04T11:05:17;102323.91;;;10.75;84.35
80188;BME280;73735;52.134;5.436;2024-02-04T11:07:44;102325.53;;;10.77;84.37
80188;BME280;73735;52.134;5.436;2024-02-04T11:10:11;102321.88;;;10.80;84.26
80188;BME280;73735;52.134;5.436;2024-02-04T11:12:40;102321.03;;;10.79;84.32
80188;BME280;73735;52.134;5.436;2024-02-04T11:15:09;102322.88;;;10.77;84.49
80188;BME280;73735;52.134;5.436;2024-02-04T11:21:59;102317.38;;;10.66;86.07
80188;BME280;73735;52.134;5.436;2024-02-04T11:26:34;102338.00;;;10.58;87.38
80188;BME280;73735;52.134;5.436;2024-02-04T11:29:01;102328.56;;;10.54;87.85
80188;BME280;73735;52.134;5.436;2024-02-04T11:31:28;102329.50;;;10.53;88.24
80188;BME280;73735;52.134;5.436;2024-02-04T11:33:56;102310.97;;;10.54;88.69
80188;BME280;73735;52.134;5.436;2024-02-04T11:36:26;102305.81;;;10.53;89.06
80188;BME280;73735;52.134;5.436;2024-02-04T11:38:53;102301.56;;;10.50;89.11
80188;BME280;73735;52.134;5.436;2024-02-04T11:41:23;102280.50;;;10.50;89.69
80188;BME280;73735;52.134;5.436;2024-02-04T11:43:55;102287.47;;;10.51;89.83
80188;BME280;73735;52.134;5.436;2024-02-04T11:46:30;102288.31;;;10.52;89.87
80188;BME280;73735;52.134;5.436;2024-02-04T11:48:59;102284.75;;;10.53;89.87
80188;BME280;73735;52.134;5.436;2024-02-04T11:51:26;102284.56;;;10.56;90.02
80188;BME280;73735;52.134;5.436;2024-02-04T11:53:54;102282.00;;;10.54;90.11
80188;BME280;73735;52.134;5.436;2024-02-04T11:56:23;102286.25;;;10.57;89.92
80188;BME280;73735;52.134;5.436;2024-02-04T11:58:51;102276.56;;;10.57;89.96
80188;BME280;73735;52.134;5.436;2024-02-04T12:01:17;102279.28;;;10.56;89.89
80188;BME280;73735;52.134;5.436;2024-02-04T12:03:48;102286.25;;;10.57;89.81
80188;BME280;73735;52.134;5.436;2024-02-04T12:06:14;102275.72;;;10.57;89.69
80188;BME280;73735;52.134;5.436;2024-02-04T12:08:43;102279.13;;;10.59;89.74
80188;BME280;73735;52.134;5.436;2024-02-04T12:11:09;102269.34;;;10.61;89.77
80188;BME280;73735;52.134;5.436;2024-02-04T12:13:36;102265.03;;;10.76;89.62
80188;BME280;73735;52.134;5.436;2024-02-04T12:16:08;102264.16;;;10.75;89.03
80188;BME280;73735;52.134;5.436;2024-02-04T12:18:35;102250.47;;;10.69;89.01
80188;BME280;73735;52.134;5.436;2024-02-04T12:21:01;102255.88;;;10.67;89.12
80188;BME280;73735;52.134;5.436;2024-02-04T12:23:28;102252.28;;;10.68;89.09
80188;BME280;73735;52.134;5.436;2024-02-04T12:25:55;102248.53;;;10.72;89.04
80188;BME280;73735;52.134;5.436;2024-02-04T12:28:22;102246.81;;;10.71;89.15
80188;BME280;73735;52.134;5.436;2024-02-04T12:30:55;102249.38;;;10.73;89.13
80188;BME280;73735;52.134;5.436;2024-02-04T12:33:22;102244.03;;;10.74;89.22
80188;BME280;73735;52.134;5.436;2024-02-04T12:35:50;102255.34;;;10.76;89.03
80188;BME280;73735;52.134;5.436;2024-02-04T12:38:18;102241.31;;;10.76;88.95
80188;BME280;73735;52.134;5.436;2024-02-04T12:40:45;102249.97;;;10.78;88.67
80188;BME280;73735;52.134;5.436;2024-02-04T12:43:11;102253.47;;;10.78;88.81
80188;BME280;73735;52.134;5.436;2024-02-04T12:45:38;102254.31;;;10.79;88.60
80188;BME280;73735;52.134;5.436;2024-02-04T12:48:05;102256.09;;;10.78;88.34
80188;BME280;73735;52.134;5.436;2024-02-04T12:50:31;102249.38;;;10.88;87.97
80188;BME280;73735;52.134;5.436;2024-02-04T12:53:06;102253.94;;;10.85;87.55
80188;BME280;73735;52.134;5.436;2024-02-04T12:55:36;102250.47;;;10.84;87.56
80188;BME280;73735;52.134;5.436;2024-02-04T12:58:08;102231.19;;;10.84;87.70
80188;BME280;73735;52.134;5.436;2024-02-04T13:00:36;102228.66;;;10.82;87.42
80188;BME280;73735;52.134;5.436;2024-02-04T13:03:04;102215.47;;;10.82;87.89
80188;BME280;73735;52.134;5.436;2024-02-04T13:05:31;102212.84;;;10.82;87.94
80188;BME280;73735;52.134;5.436;2024-02-04T13:07:59;102220.00;;;10.80;87.95
80188;BME280;73735;52.134;5.436;2024-02-04T13:10:29;102224.31;;;10.81;87.99